Time;durP1;ratioP1;P1;durP2;ratioP2;P2;SDS_P1;SDS_P2;PMS_P1;PMS_P2;Temp;Humidity;BMP_temperature;BMP_pressure;BME280_temperature;BME280_humidity;BME280_pressure;Samples;Min_cycle;Max_cycle;Signal;HPM_P1;HPM_P2
2020/12/19 00:01:35;;;;;;;21.63;12.77;;;;;;;1.60;60.67;100807.56;5010491;28;20038;-60
2020/12/19 00:04:01;;;;;;;25.73;12.30;;;;;;;1.18;60.59;100737.41;5009888;28;20041;-59
2020/12/19 00:06:27;;;;;;;20.27;11.60;;;;;;;1.57;60.63;100794.44;5011099;28;20030;-53
2020/12/19 00:08:53;;;;;;;22.30;12.63;;;;;;;1.68;60.58;100815.22;5010535;28;20107;-55
2020/12/19 00:11:32;;;;;;;20.88;11.00;;;;;;;1.68;60.21;100807.31;5010612;28;20108;-57
2020/12/19 00:13:57;;;;;;;22.63;12.77;;;;;;;1.57;60.63;100808.47;5009925;28;20569;-55
2020/12/19 00:16:29;;;;;;;20.77;12.80;;;;;;;1.54;60.93;100815.63;5021914;28;20512;-57
2020/12/19 00:18:54;;;;;;;20.90;12.50;;;;;;;1.49;61.18;100809.59;4991424;28;20038;-59
2020/12/19 00:21:19;;;;;;;22.02;12.15;;;;;;;1.53;60.93;100806.84;5010784;28;20390;-53
2020/12/19 00:23:45;;;;;;;25.73;12.10;;;;;;;1.31;61.04;100781.94;5011187;28;20100;-57
2020/12/19 00:26:10;;;;;;;26.52;12.07;;;;;;;1.41;61.65;100815.06;4995068;28;20038;-58
2020/12/19 00:28:36;;;;;;;21.80;12.32;;;;;;;1.36;61.44;100806.41;5013096;28;20053;-57
2020/12/19 00:31:01;;;;;;;24.45;12.52;;;;;;;1.39;61.54;100806.34;5013356;28;20046;-60
2020/12/19 00:33:27;;;;;;;22.65;11.98;;;;;;;1.45;61.66;100814.13;5013476;28;20033;-56
2020/12/19 00:35:56;;;;;;;22.40;12.25;;;;;;;1.35;61.35;100809.97;5030247;28;20033;-54
2020/12/19 00:38:22;;;;;;;21.52;12.80;;;;;;;1.36;61.91;100809.06;5028708;28;20382;-58
2020/12/19 00:40:48;;;;;;;19.80;11.68;;;;;;;1.34;61.74;100811.75;5013361;28;20064;-63
2020/12/19 00:43:13;;;;;;;23.27;12.32;;;;;;;1.33;61.80;100820.59;5028672;28;20034;-56
2020/12/19 00:45:39;;;;;;;24.20;12.55;;;;;;;1.35;61.79;100818.75;5013232;28;20034;-60
2020/12/19 00:48:04;;;;;;;19.92;11.60;;;;;;;1.29;62.49;100811.00;5013962;28;20041;-59
2020/12/19 00:50:30;;;;;;;18.77;11.27;;;;;;;0.95;62.16;100762.59;5014598;28;20042;-58
2020/12/19 00:52:55;;;;;;;19.52;10.98;;;;;;;0.91;62.24;100734.59;5013301;28;20026;-55
2020/12/19 00:55:21;;;;;;;19.20;10.68;;;;;;;1.42;62.35;100820.31;5013240;28;20098;-52
2020/12/19 00:57:46;;;;;;;19.23;11.63;;;;;;;1.31;62.31;100797.78;5013059;28;20042;-55
2020/12/19 01:00:12;;;;;;;18.92;11.38;;;;;;;1.33;62.73;100804.75;5031048;28;20038;-55
2020/12/19 01:02:38;;;;;;;18.55;10.40;;;;;;;1.39;62.80;100819.53;5016804;28;20144;-56
2020/12/19 01:05:08;;;;;;;21.25;11.02;;;;;;;1.40;62.92;100810.72;5048036;28;20115;-56
2020/12/19 01:07:38;;;;;;;18.73;10.80;;;;;;;1.43;63.38;100815.91;5043962;28;20539;-53
2020/12/19 01:10:06;;;;;;;17.25;10.15;;;;;;;1.44;62.19;100807.06;5032524;28;20408;-53
2020/12/19 01:12:33;;;;;;;17.13;10.38;;;;;;;1.38;62.55;100823.06;5035097;28;20041;-57
2020/12/19 01:14:58;;;;;;;17.08;10.55;;;;;;;1.28;62.67;100799.59;5035406;28;20136;-52
2020/12/19 01:17:24;;;;;;;16.40;10.02;;;;;;;0.98;62.46;100736.19;5025104;28;20554;-58
2020/12/19 01:19:49;;;;;;;18.27;9.82;;;;;;;1.43;62.44;100816.78;5033922;28;20083;-56
2020/12/19 01:22:15;;;;;;;31.38;14.20;;;;;;;1.34;62.96;100822.31;5038370;28;20547;-54
2020/12/19 01:24:40;;;;;;;18.27;10.07;;;;;;;1.33;63.07;100815.31;5032309;28;20037;-55
2020/12/19 01:27:07;;;;;;;17.35;9.90;;;;;;;1.27;63.14;100808.41;5015683;28;20025;-55
2020/12/19 01:29:33;;;;;;;18.15;9.77;;;;;;;1.19;63.46;100813.00;5043342;28;20025;-56
2020/12/19 01:31:58;;;;;;;16.45;10.15;;;;;;;1.13;63.69;100803.50;5038839;28;20033;-55
2020/12/19 01:34:24;;;;;;;15.73;9.52;;;;;;;1.27;63.48;100811.03;5032389;28;20037;-55
2020/12/19 01:36:49;;;;;;;17.83;9.65;;;;;;;0.97;63.66;100776.66;5030637;28;20128;-51
2020/12/19 01:39:15;;;;;;;15.88;9.52;;;;;;;1.00;64.24;100805.56;5033069;28;20033;-57
2020/12/19 01:41:40;;;;;;;18.13;8.98;;;;;;;0.56;64.34;100723.19;5022258;28;20045;-57
2020/12/19 01:44:06;;;;;;;16.58;10.00;;;;;;;0.94;64.55;100799.59;5037770;28;20029;-56
2020/12/19 01:46:31;;;;;;;17.85;9.63;;;;;;;1.09;64.33;100814.16;5034985;28;20029;-57
2020/12/19 01:48:58;;;;;;;17.02;8.75;;;;;;;1.03;64.17;100775.59;5048337;28;20489;-56
2020/12/19 01:51:27;;;;;;;17.67;9.32;;;;;;;1.10;64.13;100786.88;5034096;28;20041;-58
2020/12/19 01:53:53;;;;;;;16.83;8.90;;;;;;;1.20;64.04;100798.91;5031609;28;20041;-56
2020/12/19 01:56:29;;;;;;;16.52;8.88;;;;;;;1.20;64.26;100788.34;5025284;28;20149;-55
2020/12/19 01:58:55;;;;;;;15.63;9.20;;;;;;;1.27;64.09;100794.34;5031499;28;20069;-55
2020/12/19 02:01:22;;;;;;;14.52;7.88;;;;;;;1.31;64.03;100795.13;5031342;28;20041;-57
2020/12/19 02:03:48;;;;;;;18.00;9.70;;;;;;;1.11;64.17;100776.28;5021086;28;20528;-56
2020/12/19 02:06:14;;;;;;;15.60;9.15;;;;;;;0.95;65.09;100767.03;5044239;28;20033;-52
2020/12/19 02:08:39;;;;;;;14.05;8.63;;;;;;;1.18;64.57;100792.78;5016938;28;20051;-51
2020/12/19 02:11:05;;;;;;;15.50;8.70;;;;;;;1.23;64.16;100790.06;5046967;28;20037;-49
2020/12/19 02:13:31;;;;;;;13.40;8.00;;;;;;;1.24;64.22;100787.38;5031267;28;20112;-55
2020/12/19 02:15:56;;;;;;;15.60;8.90;;;;;;;1.14;64.19;100794.66;5030739;28;20134;-52
2020/12/19 02:18:21;;;;;;;15.82;8.63;;;;;;;0.79;64.41;100729.66;5029873;28;20124;-54
2020/12/19 02:20:48;;;;;;;15.18;8.98;;;;;;;1.07;64.45;100777.25;5017555;28;20500;-52
2020/12/19 02:23:14;;;;;;;15.90;9.07;;;;;;;0.91;64.94;100752.19;5045677;28;20032;-52
2020/12/19 02:25:39;;;;;;;16.35;9.50;;;;;;;0.99;64.87;100780.09;5031042;28;20033;-58
2020/12/19 02:28:07;;;;;;;15.73;9.30;;;;;;;1.00;65.09;100787.13;5035328;28;20056;-57
2020/12/19 02:30:33;;;;;;;11.98;6.90;;;;;;;1.16;64.68;100794.63;5014794;28;20034;-58
2020/12/19 02:32:59;;;;;;;15.82;9.52;;;;;;;1.01;64.87;100787.97;5047149;28;20450;-55
2020/12/19 02:35:26;;;;;;;15.45;9.35;;;;;;;1.02;64.63;100778.28;5020054;28;20115;-56
2020/12/19 02:37:52;;;;;;;17.73;8.73;;;;;;;1.08;64.76;100792.16;5039850;28;20163;-55
2020/12/19 02:40:18;;;;;;;17.02;10.00;;;;;;;0.99;64.83;100790.66;5031014;28;20516;-61
2020/12/19 02:42:44;;;;;;;16.55;10.30;;;;;;;1.00;64.78;100812.59;5017495;28;20063;-61
2020/12/19 02:45:10;;;;;;;18.48;10.55;;;;;;;0.97;65.28;100802.13;5024579;28;20140;-63
2020/12/19 02:47:36;;;;;;;16.33;9.32;;;;;;;1.06;64.59;100798.41;5028452;28;20532;-58
2020/12/19 02:50:03;;;;;;;16.52;9.57;;;;;;;1.00;64.64;100788.88;5038279;28;20029;-62
2020/12/19 02:52:29;;;;;;;17.58;9.75;;;;;;;0.91;65.06;100776.78;5041913;28;20049;-59
2020/12/19 02:54:54;;;;;;;16.25;9.85;;;;;;;0.92;64.47;100778.50;5033108;28;20037;-61
2020/12/19 02:57:20;;;;;;;15.63;9.90;;;;;;;0.92;64.51;100773.25;5043682;28;20512;-62
2020/12/19 02:59:45;;;;;;;16.52;9.95;;;;;;;0.93;64.67;100774.13;5020223;28;20406;-58
2020/12/19 03:02:11;;;;;;;15.23;7.93;;;;;;;0.96;64.79;100789.84;5037621;28;20042;-59
2020/12/19 03:04:36;;;;;;;17.63;10.13;;;;;;;0.92;64.90;100789.06;5033333;28;20041;-63
2020/12/19 03:07:02;;;;;;;17.58;10.30;;;;;;;0.79;64.96;100777.09;5027190;28;20061;-62
2020/12/19 03:09:28;;;;;;;18.65;10.40;;;;;;;0.41;64.95;100713.88;5026320;28;20033;-58
2020/12/19 03:11:54;;;;;;;16.08;10.23;;;;;;;0.88;65.37;100782.13;5038957;28;20029;-59
2020/12/19 03:14:19;;;;;;;18.67;10.93;;;;;;;0.95;65.04;100778.44;5029977;28;20037;-59
2020/12/19 03:16:45;;;;;;;16.48;10.38;;;;;;;0.93;64.95;100760.94;5020001;28;20042;-59
2020/12/19 03:19:11;;;;;;;19.77;10.82;;;;;;;1.02;64.56;100770.38;5018989;28;20034;-58
2020/12/19 03:21:36;;;;;;;17.88;10.77;;;;;;;0.88;64.52;100758.41;5027789;28;20087;-54
2020/12/19 03:24:02;;;;;;;20.55;11.07;;;;;;;1.07;64.77;100776.41;5037590;28;20044;-58
2020/12/19 03:26:27;;;;;;;16.38;10.00;;;;;;;1.10;64.50;100781.59;5030302;28;20037;-57
2020/12/19 03:28:53;;;;;;;18.85;11.60;;;;;;;0.94;64.52;100754.75;5030071;28;20405;-58
2020/12/19 03:31:18;;;;;;;18.55;11.50;;;;;;;0.91;64.62;100768.03;5022599;28;20079;-61
2020/12/19 03:33:44;;;;;;;17.85;10.18;;;;;;;0.93;64.81;100755.66;5030584;28;20075;-61
2020/12/19 03:36:09;;;;;;;18.55;10.93;;;;;;;0.98;64.69;100769.59;5036360;28;20408;-56
2020/12/19 03:38:35;;;;;;;19.55;11.38;;;;;;;0.98;64.89;100767.84;5029892;28;20052;-58
2020/12/19 03:41:00;;;;;;;17.00;10.55;;;;;;;1.05;64.54;100772.94;5029903;28;20060;-60
2020/12/19 03:43:26;;;;;;;17.92;10.77;;;;;;;1.10;64.67;100777.19;5029441;28;20037;-56
2020/12/19 03:45:51;;;;;;;17.98;10.23;;;;;;;1.18;64.44;100763.78;5029216;28;20034;-60
2020/12/19 03:48:17;;;;;;;17.15;11.32;;;;;;;1.18;63.87;100763.78;5015818;28;20048;-57
2020/12/19 03:50:42;;;;;;;23.58;12.15;;;;;;;1.18;64.02;100765.56;5043955;28;20451;-58
2020/12/19 03:53:08;;;;;;;18.85;11.93;;;;;;;1.07;64.18;100776.41;5013601;28;20049;-61
2020/12/19 03:55:33;;;;;;;18.40;11.23;;;;;;;0.97;64.72;100763.47;5028943;28;20466;-58
2020/12/19 03:57:59;;;;;;;20.23;12.30;;;;;;;1.06;64.18;100782.59;5017137;28;20153;-60
2020/12/19 04:00:24;;;;;;;15.77;9.40;;;;;;;1.15;64.39;100777.06;5040025;28;20045;-58
2020/12/19 04:02:50;;;;;;;20.83;11.73;;;;;;;0.77;63.83;100715.66;5009822;28;20117;-59
2020/12/19 04:05:15;;;;;;;21.40;12.88;;;;;;;1.10;63.88;100777.19;5026093;28;20041;-59
2020/12/19 04:07:41;;;;;;;19.63;11.20;;;;;;;1.09;64.21;100761.41;5039992;28;20037;-59
2020/12/19 04:10:08;;;;;;;22.38;11.57;;;;;;;0.95;64.23;100775.78;5016023;28;20090;-58
2020/12/19 04:12:34;;;;;;;20.73;12.82;;;;;;;0.80;64.97;100774.41;5042669;28;20033;-59
2020/12/19 04:14:59;;;;;;;19.55;12.50;;;;;;;0.86;64.69;100773.41;5012067;28;20065;-60
2020/12/19 04:17:25;;;;;;;20.02;12.50;;;;;;;0.90;64.51;100787.38;5036522;28;20032;-60
2020/12/19 04:19:50;;;;;;;19.50;11.85;;;;;;;0.90;64.69;100782.97;5036970;28;20045;-61
2020/12/19 04:22:16;;;;;;;20.23;12.52;;;;;;;0.54;64.31;100709.19;5030459;28;20091;-61
2020/12/19 04:24:42;;;;;;;21.58;13.07;;;;;;;0.86;64.64;100752.31;5045959;28;20106;-59
2020/12/19 04:27:07;;;;;;;17.85;11.40;;;;;;;-0.04;64.33;100596.44;5029487;28;20030;-60
2020/12/19 04:29:33;;;;;;;20.60;11.70;;;;;;;0.97;64.32;100776.66;5029205;28;20504;-59
2020/12/19 04:31:59;;;;;;;17.83;11.43;;;;;;;0.66;64.48;100703.59;5028762;28;20485;-56
2020/12/19 04:34:25;;;;;;;18.42;10.98;;;;;;;1.02;64.53;100771.22;5013983;28;20041;-57
2020/12/19 04:36:52;;;;;;;19.73;11.50;;;;;;;1.02;64.52;100763.31;5045052;28;20044;-59
2020/12/19 04:39:18;;;;;;;18.63;11.02;;;;;;;1.04;64.22;100776.47;5029524;28;20044;-58
2020/12/19 04:41:43;;;;;;;18.35;10.88;;;;;;;1.04;64.29;100758.03;5029240;28;20038;-61
2020/12/19 04:44:09;;;;;;;19.13;11.50;;;;;;;1.10;64.35;100771.03;5015727;28;20072;-60
2020/12/19 04:46:39;;;;;;;20.33;11.35;;;;;;;1.12;64.53;100770.09;5042791;28;20086;-60
2020/12/19 04:49:05;;;;;;;18.48;11.02;;;;;;;1.18;63.94;100770.84;5024200;28;20116;-59
2020/12/19 04:51:33;;;;;;;18.80;11.57;;;;;;;1.02;63.91;100759.84;5025496;28;20507;-60
2020/12/19 04:53:58;;;;;;;17.95;10.27;;;;;;;0.98;64.36;100757.28;5037178;28;20038;-61
2020/12/19 04:56:24;;;;;;;19.30;11.32;;;;;;;1.10;64.37;100776.31;5017067;28;20049;-67
2020/12/19 04:58:54;;;;;;;19.88;11.15;;;;;;;1.06;64.89;100764.13;5015028;28;20180;-62
2020/12/19 05:01:19;;;;;;;16.75;10.55;;;;;;;1.21;63.56;100769.00;5042302;28;20543;-61
2020/12/19 05:03:47;;;;;;;16.92;10.30;;;;;;;0.73;63.94;100700.81;5028972;28;20045;-61
2020/12/19 05:06:16;;;;;;;18.73;10.57;;;;;;;1.14;64.50;100765.66;5042505;28;20032;-58
2020/12/19 05:08:42;;;;;;;17.38;10.98;;;;;;;1.16;64.15;100780.56;5044104;28;20037;-61
2020/12/19 05:11:07;;;;;;;17.92;10.95;;;;;;;1.08;64.27;100762.31;5030187;28;20851;-62
2020/12/19 05:13:33;;;;;;;16.08;10.20;;;;;;;1.20;64.09;100777.78;5032399;28;20051;-63
2020/12/19 05:15:58;;;;;;;17.33;10.10;;;;;;;1.16;64.15;100770.03;5032975;28;20033;-63
2020/12/19 05:18:25;;;;;;;18.38;9.57;;;;;;;1.12;64.44;100777.13;5032551;28;20033;-61
2020/12/19 05:20:52;;;;;;;16.88;11.40;;;;;;;0.96;64.52;100763.50;5034903;28;20037;-56
2020/12/19 05:23:17;;;;;;;19.00;10.68;;;;;;;0.99;64.31;100761.66;5028254;28;20029;-55
2020/12/19 05:25:44;;;;;;;16.20;10.40;;;;;;;1.03;64.71;100769.47;5041925;28;20047;-61
2020/12/19 05:28:09;;;;;;;18.10;10.65;;;;;;;1.06;64.70;100758.84;5038346;28;20103;-63
2020/12/19 05:30:35;;;;;;;19.02;11.55;;;;;;;1.03;64.62;100758.94;5028074;28;20481;-66
2020/12/19 05:33:00;;;;;;;16.70;10.80;;;;;;;1.09;64.60;100782.50;5027840;28;20025;-65
2020/12/19 05:35:26;;;;;;;17.85;11.30;;;;;;;1.00;64.78;100783.59;5019115;28;20046;-66
2020/12/19 05:38:05;;;;;;;17.25;10.82;;;;;;;1.02;64.89;100773.88;5034435;28;20028;-62
2020/12/19 05:40:32;;;;;;;19.30;11.20;;;;;;;0.79;64.78;100761.28;5035837;28;20061;-59
2020/12/19 05:42:58;;;;;;;20.13;12.10;;;;;;;1.00;64.67;100787.13;5035512;28;20036;-57
2020/12/19 05:45:26;;;;;;;18.33;11.43;;;;;;;0.98;64.81;100799.47;5033000;28;20405;-58
2020/12/19 05:47:52;;;;;;;17.83;11.43;;;;;;;0.87;64.73;100761.94;5016886;28;20046;-58
2020/12/19 05:50:19;;;;;;;19.15;11.32;;;;;;;1.02;64.64;100794.97;5044189;28;20121;-65
2020/12/19 05:52:45;;;;;;;19.70;12.15;;;;;;;0.47;65.04;100694.41;5048437;28;20037;-65
2020/12/19 05:55:15;;;;;;;21.33;12.60;;;;;;;0.98;64.79;100783.66;5031625;28;20087;-62
2020/12/19 05:57:41;;;;;;;18.98;11.63;;;;;;;1.06;65.03;100782.59;5030867;28;20120;-61
2020/12/19 06:00:15;;;;;;;20.42;12.45;;;;;;;1.06;65.01;100779.94;5019360;28;20046;-62
2020/12/19 06:02:41;;;;;;;19.88;11.95;;;;;;;1.02;64.31;100754.56;5012449;28;20037;-62
2020/12/19 06:05:12;;;;;;;23.83;12.25;;;;;;;1.11;64.93;100793.88;5012194;28;20042;-60
2020/12/19 06:07:41;;;;;;;18.67;11.90;;;;;;;1.03;64.97;100780.03;5011789;28;20120;-63
2020/12/19 06:10:10;;;;;;;20.15;12.18;;;;;;;0.56;64.83;100697.69;5013227;28;20500;-62
2020/12/19 06:12:44;;;;;;;23.30;13.05;;;;;;;0.71;64.88;100732.47;5011485;28;20131;-64
2020/12/19 06:15:19;;;;;;;17.60;11.48;;;;;;;1.10;65.07;100794.78;5012034;28;20470;-62
2020/12/19 06:17:56;;;;;;;21.35;11.60;;;;;;;1.13;65.26;100778.88;5011841;28;20033;-62
2020/12/19 06:20:22;;;;;;;17.85;11.57;;;;;;;0.57;64.76;100706.47;5012755;28;20070;-61
2020/12/19 06:22:48;;;;;;;18.15;11.10;;;;;;;0.90;64.83;100763.66;5011918;28;20068;-61
2020/12/19 06:25:44;;;;;;;17.98;11.20;;;;;;;1.06;64.92;100780.78;5026992;28;20033;-62
2020/12/19 06:28:12;;;;;;;17.70;10.98;;;;;;;1.11;64.01;100793.88;5011201;28;20387;-62
2020/12/19 06:30:39;;;;;;;15.98;9.98;;;;;;;1.05;64.35;100807.22;5011466;28;20040;-58
2020/12/19 06:33:12;;;;;;;15.55;10.43;;;;;;;0.95;64.38;100786.34;5011546;28;20034;-61
2020/12/19 06:35:46;;;;;;;13.63;9.27;;;;;;;1.02;64.40;100794.97;5017599;28;20037;-61
2020/12/19 06:38:11;;;;;;;18.02;10.73;;;;;;;1.06;63.84;100799.25;5017602;28;20556;-64
2020/12/19 06:40:38;;;;;;;16.52;9.27;;;;;;;0.95;63.98;100788.97;5011272;28;20058;-61
2020/12/19 06:43:11;;;;;;;15.30;9.63;;;;;;;0.98;64.33;100804.75;5011083;28;20030;-62
2020/12/19 06:45:37;;;;;;;15.43;10.13;;;;;;;0.95;64.14;100794.25;5010498;28;20418;-63
2020/12/19 06:48:03;;;;;;;13.60;9.15;;;;;;;1.00;64.17;100802.06;5023150;28;20037;-66
2020/12/19 06:50:58;;;;;;;19.70;9.50;;;;;;;1.06;64.12;100796.63;5014730;28;20500;-60
2020/12/19 06:53:25;;;;;;;18.98;10.52;;;;;;;0.65;63.35;100720.31;5013311;28;20064;-63
2020/12/19 06:55:50;;;;;;;12.93;9.57;;;;;;;1.04;63.19;100790.53;5010946;28;20096;-60
2020/12/19 06:58:34;;;;;;;17.30;9.95;;;;;;;1.04;63.50;100800.22;5010769;28;20158;-60
2020/12/19 07:01:00;;;;;;;13.82;9.63;;;;;;;0.97;63.94;100800.38;5033144;28;20127;-62
2020/12/19 07:03:41;;;;;;;14.32;10.02;;;;;;;1.00;64.10;100807.34;5022786;28;20072;-61
2020/12/19 07:06:12;;;;;;;12.95;9.45;;;;;;;1.07;63.35;100813.31;5037596;28;20036;-61
2020/12/19 07:08:38;;;;;;;17.40;10.50;;;;;;;1.03;63.52;100809.03;5014824;28;20100;-62
2020/12/19 07:11:04;;;;;;;15.45;9.88;;;;;;;1.11;63.35;100818.50;5046067;28;20021;-59
2020/12/19 07:13:49;;;;;;;13.80;8.95;;;;;;;1.14;63.65;100799.94;5022105;28;20034;-59
2020/12/19 07:16:51;;;;;;;14.82;8.63;;;;;;;1.19;63.10;100799.81;5039483;28;20047;-57
2020/12/19 07:19:27;;;;;;;15.90;9.77;;;;;;;1.07;63.29;100785.16;5030774;28;20566;-60
2020/12/19 07:21:55;;;;;;;13.25;8.95;;;;;;;1.05;63.23;100797.53;5038284;28;20033;-57
2020/12/19 07:24:21;;;;;;;14.75;9.55;;;;;;;0.98;63.43;100794.19;5044716;28;20167;-60
2020/12/19 07:26:47;;;;;;;17.63;11.13;;;;;;;1.00;63.72;100779.19;5033517;28;20053;-61
2020/12/19 07:29:23;;;;;;;10.45;5.72;;;;;;;0.35;62.82;100654.31;5044024;28;20025;-61
2020/12/19 07:31:54;;;;;;;15.15;8.90;;;;;;;1.07;63.21;100798.34;5039923;28;20447;-58
2020/12/19 07:34:20;;;;;;;13.57;8.27;;;;;;;1.11;63.28;100788.59;5034004;28;20428;-58
2020/12/19 07:36:47;;;;;;;14.10;9.10;;;;;;;1.08;63.49;100800.06;5028772;28;20489;-60
2020/12/19 07:39:14;;;;;;;12.55;8.95;;;;;;;1.03;63.34;100796.69;5029003;28;20064;-57
2020/12/19 07:41:43;;;;;;;12.55;8.40;;;;;;;1.06;63.33;100796.63;5019952;28;20033;-61
2020/12/19 07:44:18;;;;;;;12.15;7.97;;;;;;;1.07;63.12;100781.69;5024629;28;20041;-60
2020/12/19 07:47:01;;;;;;;12.68;8.13;;;;;;;1.09;63.09;100774.59;5030158;28;20095;-59
2020/12/19 07:49:31;;;;;;;12.27;8.27;;;;;;;1.06;62.71;100796.63;5029020;28;20361;-58
2020/12/19 07:52:17;;;;;;;12.57;7.40;;;;;;;1.27;63.02;100804.88;5033237;28;20094;-55
2020/12/19 07:54:56;;;;;;;12.40;8.15;;;;;;;1.29;62.25;100818.91;5014552;28;20049;-57
2020/12/19 07:57:23;;;;;;;13.00;8.15;;;;;;;1.23;62.76;100798.84;5027749;28;20053;-57
2020/12/19 07:59:49;;;;;;;10.80;6.18;;;;;;;1.32;62.43;100810.06;5030457;28;20243;-58
2020/12/19 08:02:17;;;;;;;12.70;8.05;;;;;;;1.21;62.36;100816.50;5034747;28;20554;-58
2020/12/19 08:04:50;;;;;;;10.88;6.22;;;;;;;0.64;62.32;100715.94;5055710;28;20063;-59
2020/12/19 08:07:17;;;;;;;14.98;8.05;;;;;;;1.22;62.02;100819.97;5043119;28;20025;-57
2020/12/19 08:09:42;;;;;;;14.25;8.43;;;;;;;1.03;62.71;100782.66;5028050;28;20072;-52
2020/12/19 08:12:10;;;;;;;16.75;8.77;;;;;;;1.13;61.89;100802.59;5027524;28;20892;-51
2020/12/19 08:14:36;;;;;;;16.63;8.32;;;;;;;1.15;62.37;100798.16;5027851;28;20045;-53
2020/12/19 08:17:06;;;;;;;12.68;8.10;;;;;;;1.24;62.44;100813.78;5032013;28;20037;-57
2020/12/19 08:19:38;;;;;;;17.88;9.13;;;;;;;1.20;62.62;100803.31;5039612;28;20041;-55
2020/12/19 08:22:05;;;;;;;14.15;8.68;;;;;;;1.34;62.34;100806.47;5027851;28;20041;-50
2020/12/19 08:24:31;;;;;;;16.52;9.25;;;;;;;0.92;62.05;100727.56;5027666;28;20042;-49
2020/12/19 08:27:43;;;;;;;9.77;8.13;;;;;;;1.51;62.06;100806.03;5024663;28;20038;-52
2020/12/19 08:30:10;;;;;;;14.48;9.23;;;;;;;1.56;61.94;100809.41;5013670;28;20924;-53
2020/12/19 08:32:40;;;;;;;13.35;7.95;;;;;;;1.64;61.46;100808.31;5027787;28;20394;-55
2020/12/19 08:35:07;;;;;;;16.25;8.40;;;;;;;1.61;61.18;100818.97;5028343;28;20099;-51
2020/12/19 08:37:33;;;;;;;12.80;8.48;;;;;;;1.50;61.50;100828.03;5019265;28;20038;-53
2020/12/19 08:40:07;;;;;;;14.13;9.35;;;;;;;1.35;62.05;100804.69;5035870;28;20037;-57
2020/12/19 08:42:34;;;;;;;13.70;8.57;;;;;;;1.44;61.85;100812.34;5031232;28;20067;-52
2020/12/19 08:45:28;;;;;;;15.40;9.00;;;;;;;1.54;62.06;100816.50;5028641;28;20386;-53
2020/12/19 08:47:59;;;;;;;15.00;8.73;;;;;;;1.60;61.34;100807.56;5046013;28;20132;-55
2020/12/19 08:50:40;;;;;;;13.82;9.82;;;;;;;1.72;61.61;100811.63;5039890;28;20473;-58
2020/12/19 08:53:11;;;;;;;17.55;9.43;;;;;;;1.80;61.14;100808.75;5016238;28;20029;-55
2020/12/19 08:55:38;;;;;;;14.75;9.60;;;;;;;1.87;61.84;100810.31;5023385;28;20490;-56
2020/12/19 08:58:04;;;;;;;15.90;10.57;;;;;;;1.82;60.93;100813.09;5027901;28;20450;-57
2020/12/19 09:00:38;;;;;;;17.58;10.30;;;;;;;1.82;60.86;100820.16;5015246;28;20104;-57
2020/12/19 09:03:09;;;;;;;15.75;10.30;;;;;;;1.67;61.46;100803.81;5012255;28;20547;-55
2020/12/19 09:05:42;;;;;;;16.55;9.98;;;;;;;1.68;61.84;100808.19;5011377;28;20033;-55
2020/12/19 09:08:13;;;;;;;19.65;9.73;;;;;;;1.69;61.73;100807.28;5012493;28;20824;-51
2020/12/19 09:10:40;;;;;;;13.60;8.88;;;;;;;1.65;61.62;100826.75;5022800;28;20107;-52
2020/12/19 09:13:12;;;;;;;18.50;9.20;;;;;;;1.67;61.73;100821.41;5011598;28;20038;-54
2020/12/19 09:15:39;;;;;;;16.08;9.50;;;;;;;1.52;61.90;100820.94;5011583;28;20044;-58
2020/12/19 09:18:25;;;;;;;13.52;9.32;;;;;;;1.67;62.10;100824.06;5011615;28;20072;-52
2020/12/19 09:20:54;;;;;;;15.02;9.13;;;;;;;1.69;61.67;100811.72;5011767;28;20045;-52
2020/12/19 09:23:20;;;;;;;15.13;9.88;;;;;;;1.60;61.99;100804.03;5011291;28;20030;-57
2020/12/19 09:25:46;;;;;;;16.17;9.73;;;;;;;1.67;61.87;100821.41;5028334;28;20165;-52
2020/12/19 09:28:13;;;;;;;14.30;9.80;;;;;;;1.58;61.69;100807.56;5011601;28;20034;-53
2020/12/19 09:30:39;;;;;;;16.33;9.60;;;;;;;1.61;61.95;100808.41;5011855;28;20133;-49
2020/12/19 09:33:04;;;;;;;17.52;9.90;;;;;;;1.66;61.86;100806.50;5011443;28;20042;-51
2020/12/19 09:35:30;;;;;;;16.15;10.63;;;;;;;1.70;62.27;100809.00;5011437;28;20433;-54
2020/12/19 09:37:56;;;;;;;17.95;10.45;;;;;;;1.76;61.81;100796.53;5011041;28;20168;-56
2020/12/19 09:40:23;;;;;;;15.95;10.15;;;;;;;1.83;61.83;100800.75;5018767;28;20094;-58
2020/12/19 09:42:48;;;;;;;15.38;9.75;;;;;;;1.49;61.40;100730.41;5012198;28;20030;-58
2020/12/19 09:45:14;;;;;;;18.10;9.90;;;;;;;1.86;60.93;100796.22;5011559;28;20036;-49
2020/12/19 09:47:41;;;;;;;18.58;10.60;;;;;;;1.76;61.35;100784.22;5010537;28;20514;-56
2020/12/19 09:50:11;;;;;;;15.65;9.75;;;;;;;1.71;61.75;100791.41;5011658;28;20128;-55
2020/12/19 09:52:37;;;;;;;19.98;9.80;;;;;;;1.69;61.66;100788.81;5010883;28;20129;-51
2020/12/19 09:55:04;;;;;;;14.75;9.57;;;;;;;1.65;61.09;100799.47;5012951;28;20037;-55
2020/12/19 09:57:31;;;;;;;17.75;9.60;;;;;;;1.60;61.80;100791.72;5021350;28;20034;-55
2020/12/19 09:59:57;;;;;;;12.68;8.20;;;;;;;1.68;61.99;100789.72;5030322;28;20432;-53
2020/12/19 10:02:23;;;;;;;17.58;9.60;;;;;;;1.60;62.07;100794.34;5015496;28;20107;-54
2020/12/19 10:04:48;;;;;;;19.52;9.70;;;;;;;1.68;61.69;100791.47;5043815;28;20036;-61
2020/12/19 10:07:14;;;;;;;18.88;9.73;;;;;;;1.60;61.87;100801.38;5044334;28;20091;-54
2020/12/19 10:09:39;;;;;;;15.18;9.77;;;;;;;1.53;62.33;100784.84;5030563;28;20032;-60
2020/12/19 10:12:05;;;;;;;19.75;10.23;;;;;;;1.64;62.09;100793.34;5028327;28;20044;-51
2020/12/19 10:14:30;;;;;;;14.20;9.40;;;;;;;1.57;62.01;100779.44;5030116;28;20038;-54
2020/12/19 10:16:56;;;;;;;16.42;9.52;;;;;;;1.62;61.71;100765.25;5026078;28;20513;-56
2020/12/19 10:19:21;;;;;;;13.32;8.55;;;;;;;1.67;61.38;100777.41;5031041;28;20040;-56
2020/12/19 10:21:47;;;;;;;14.48;9.50;;;;;;;1.58;61.68;100772.41;5031460;28;20469;-55
2020/12/19 10:24:12;;;;;;;16.33;8.98;;;;;;;1.62;61.60;100768.78;5017201;28;20423;-59
2020/12/19 10:26:38;;;;;;;15.98;10.05;;;;;;;1.69;61.59;100785.31;5039710;28;20033;-53
2020/12/19 10:29:03;;;;;;;16.60;9.80;;;;;;;1.64;61.77;100777.50;5046172;28;20036;-57
2020/12/19 10:31:29;;;;;;;17.02;9.77;;;;;;;1.62;61.73;100768.78;5031248;28;20095;-60
2020/12/19 10:33:55;;;;;;;15.57;9.80;;;;;;;1.17;62.18;100711.94;5019123;28;20066;-56
2020/12/19 10:36:20;;;;;;;16.40;9.85;;;;;;;1.60;61.99;100793.47;5052751;28;20064;-56
2020/12/19 10:38:47;;;;;;;14.95;9.55;;;;;;;1.62;61.91;100781.09;5030868;28;20501;-58
2020/12/19 10:41:15;;;;;;;14.65;8.77;;;;;;;1.63;61.64;100798.66;5046618;28;20623;-58
2020/12/19 10:43:42;;;;;;;15.20;9.88;;;;;;;1.56;62.10;100790.91;5031084;28;20085;-53
2020/12/19 10:46:08;;;;;;;17.00;9.68;;;;;;;1.55;61.82;100781.28;5030605;28;20071;-57
2020/12/19 10:48:33;;;;;;;17.05;9.45;;;;;;;1.54;62.03;100786.56;5030392;28;20029;-55
2020/12/19 10:51:00;;;;;;;16.67;9.20;;;;;;;1.52;62.13;100794.56;5030897;28;20107;-58
2020/12/19 10:53:26;;;;;;;14.93;10.10;;;;;;;1.56;61.48;100788.28;5029941;28;20445;-56
2020/12/19 10:55:52;;;;;;;16.38;9.65;;;;;;;1.53;61.82;100784.84;5019257;28;20037;-53
2020/12/19 10:58:17;;;;;;;14.43;9.27;;;;;;;1.68;61.81;100799.38;5026598;28;20054;-55
2020/12/19 11:00:43;;;;;;;14.60;8.80;;;;;;;1.50;61.52;100754.16;5012169;28;20417;-57
2020/12/19 11:03:09;;;;;;;15.18;9.93;;;;;;;1.47;60.90;100769.19;5025926;28;20034;-58
2020/12/19 11:05:40;;;;;;;17.33;9.77;;;;;;;1.62;61.64;100794.28;5010105;28;20167;-53
2020/12/19 11:08:07;;;;;;;16.00;9.30;;;;;;;1.63;61.14;100788.09;5010125;28;20042;-52
2020/12/19 11:10:33;;;;;;;16.85;8.45;;;;;;;1.56;61.18;100783.00;5010214;28;20034;-55
2020/12/19 11:13:03;;;;;;;15.02;8.95;;;;;;;1.56;61.41;100785.63;5012187;28;20037;-53
2020/12/19 11:15:32;;;;;;;14.95;9.80;;;;;;;1.51;61.52;100794.59;5009763;28;20480;-53
2020/12/19 11:17:58;;;;;;;17.58;8.95;;;;;;;1.56;61.24;100790.03;5010142;28;20432;-55
2020/12/19 11:20:24;;;;;;;20.25;8.98;;;;;;;1.45;61.08;100785.09;5009953;28;20044;-51
2020/12/19 11:22:49;;;;;;;14.30;9.63;;;;;;;1.39;61.42;100788.75;5011386;28;20084;-54
2020/12/19 11:25:15;;;;;;;15.73;8.73;;;;;;;1.40;61.20;100785.19;5010598;28;20552;-51